sensor_id;sensor_type;location;lat;lon;timestamp;P1;durP1;ratioP1;P2;durP2;ratioP2
41799;SDS011;27468;47.460;19.034;2023-07-31T00:02:03;3.80;;;2.80;;
41799;SDS011;27468;47.460;19.034;2023-07-31T00:04:28;3.40;;;2.78;;
41799;SDS011;27468;47.460;19.034;2023-07-31T00:06:54;3.33;;;2.50;;
41799;SDS011;27468;47.460;19.034;2023-07-31T00:09:19;4.68;;;2.78;;
41799;SDS011;27468;47.460;19.034;2023-07-31T00:11:45;4.00;;;2.70;;
41799;SDS011;27468;47.460;19.034;2023-07-31T00:14:10;3.03;;;2.47;;
41799;SDS011;27468;47.460;19.034;2023-07-31T00:16:36;3.20;;;2.40;;
41799;SDS011;27468;47.460;19.034;2023-07-31T00:19:01;3.53;;;2.15;;
41799;SDS011;27468;47.460;19.034;2023-07-31T00:21:27;4.05;;;2.50;;
41799;SDS011;27468;47.460;19.034;2023-07-31T00:23:52;3.35;;;2.50;;
41799;SDS011;27468;47.460;19.034;2023-07-31T00:26:17;3.72;;;2.50;;
41799;SDS011;27468;47.460;19.034;2023-07-31T00:28:43;3.58;;;2.20;;
41799;SDS011;27468;47.460;19.034;2023-07-31T00:31:08;3.67;;;2.08;;
41799;SDS011;27468;47.460;19.034;2023-07-31T00:33:34;2.78;;;2.25;;
41799;SDS011;27468;47.460;19.034;2023-07-31T00:36:01;2.50;;;2.05;;
41799;SDS011;27468;47.460;19.034;2023-07-31T00:38:27;3.45;;;2.40;;
41799;SDS011;27468;47.460;19.034;2023-07-31T00:40:52;3.13;;;2.67;;
41799;SDS011;27468;47.460;19.034;2023-07-31T00:43:17;3.03;;;2.22;;
41799;SDS011;27468;47.460;19.034;2023-07-31T00:45:43;4.32;;;2.15;;
41799;SDS011;27468;47.460;19.034;2023-07-31T00:48:09;2.70;;;2.15;;
41799;SDS011;27468;47.460;19.034;2023-07-31T00:50:34;3.30;;;2.40;;
41799;SDS011;27468;47.460;19.034;2023-07-31T00:53:01;3.78;;;2.22;;
41799;SDS011;27468;47.460;19.034;2023-07-31T00:55:26;3.72;;;2.10;;
41799;SDS011;27468;47.460;19.034;2023-07-31T00:57:52;2.88;;;2.33;;
41799;SDS011;27468;47.460;19.034;2023-07-31T01:00:18;2.78;;;2.28;;
41799;SDS011;27468;47.460;19.034;2023-07-31T01:02:43;2.88;;;2.15;;
41799;SDS011;27468;47.460;19.034;2023-07-31T01:05:09;3.03;;;2.47;;
41799;SDS011;27468;47.460;19.034;2023-07-31T01:07:39;2.50;;;2.03;;
41799;SDS011;27468;47.460;19.034;2023-07-31T01:10:15;2.50;;;2.10;;
41799;SDS011;27468;47.460;19.034;2023-07-31T01:12:45;2.72;;;2.20;;
41799;SDS011;27468;47.460;19.034;2023-07-31T01:15:14;2.47;;;2.22;;
41799;SDS011;27468;47.460;19.034;2023-07-31T01:17:41;2.55;;;2.00;;
41799;SDS011;27468;47.460;19.034;2023-07-31T01:20:28;2.60;;;1.92;;
41799;SDS011;27468;47.460;19.034;2023-07-31T01:28:19;2.45;;;1.95;;
41799;SDS011;27468;47.460;19.034;2023-07-31T01:30:48;3.22;;;2.10;;
41799;SDS011;27468;47.460;19.034;2023-07-31T01:33:15;2.83;;;2.00;;
41799;SDS011;27468;47.460;19.034;2023-07-31T01:35:43;2.63;;;2.00;;
41799;SDS011;27468;47.460;19.034;2023-07-31T01:38:09;2.08;;;1.88;;
41799;SDS011;27468;47.460;19.034;2023-07-31T01:40:35;3.20;;;2.15;;
41799;SDS011;27468;47.460;19.034;2023-07-31T01:43:00;3.20;;;2.22;;
41799;SDS011;27468;47.460;19.034;2023-07-31T01:45:26;2.83;;;2.22;;
41799;SDS011;27468;47.460;19.034;2023-07-31T01:47:51;2.60;;;2.10;;
41799;SDS011;27468;47.460;19.034;2023-07-31T01:50:17;3.22;;;2.20;;
41799;SDS011;27468;47.460;19.034;2023-07-31T01:52:42;3.05;;;2.00;;
41799;SDS011;27468;47.460;19.034;2023-07-31T01:55:08;2.35;;;1.95;;
41799;SDS011;27468;47.460;19.034;2023-07-31T01:57:33;2.10;;;1.75;;
41799;SDS011;27468;47.460;19.034;2023-07-31T01:59:59;2.70;;;1.77;;
41799;SDS011;27468;47.460;19.034;2023-07-31T02:02:24;2.67;;;1.77;;
41799;SDS011;27468;47.460;19.034;2023-07-31T02:04:50;2.42;;;1.80;;
41799;SDS011;27468;47.460;19.034;2023-07-31T02:07:15;2.00;;;1.60;;
41799;SDS011;27468;47.460;19.034;2023-07-31T02:09:40;2.70;;;1.98;;
41799;SDS011;27468;47.460;19.034;2023-07-31T02:12:06;3.28;;;1.77;;
41799;SDS011;27468;47.460;19.034;2023-07-31T02:14:33;4.00;;;1.90;;
41799;SDS011;27468;47.460;19.034;2023-07-31T02:16:59;3.25;;;2.05;;
41799;SDS011;27468;47.460;19.034;2023-07-31T02:19:25;2.83;;;1.85;;
41799;SDS011;27468;47.460;19.034;2023-07-31T02:21:50;3.08;;;2.30;;
41799;SDS011;27468;47.460;19.034;2023-07-31T02:24:15;2.60;;;1.80;;
41799;SDS011;27468;47.460;19.034;2023-07-31T02:26:41;3.03;;;1.77;;
41799;SDS011;27468;47.460;19.034;2023-07-31T02:29:07;3.53;;;2.00;;
41799;SDS011;27468;47.460;19.034;2023-07-31T02:31:33;2.67;;;1.95;;
41799;SDS011;27468;47.460;19.034;2023-07-31T02:33:58;2.53;;;1.88;;
41799;SDS011;27468;47.460;19.034;2023-07-31T02:36:24;2.50;;;1.70;;
41799;SDS011;27468;47.460;19.034;2023-07-31T02:38:49;2.30;;;1.63;;
41799;SDS011;27468;47.460;19.034;2023-07-31T02:41:15;2.38;;;1.80;;
41799;SDS011;27468;47.460;19.034;2023-07-31T02:43:40;3.42;;;1.98;;
41799;SDS011;27468;47.460;19.034;2023-07-31T02:46:05;2.08;;;1.80;;
41799;SDS011;27468;47.460;19.034;2023-07-31T02:48:31;2.95;;;2.00;;
41799;SDS011;27468;47.460;19.034;2023-07-31T02:50:57;3.17;;;1.90;;
41799;SDS011;27468;47.460;19.034;2023-07-31T02:53:22;3.55;;;1.90;;
41799;SDS011;27468;47.460;19.034;2023-07-31T02:55:48;2.03;;;1.60;;
41799;SDS011;27468;47.460;19.034;2023-07-31T02:58:13;2.58;;;1.88;;
41799;SDS011;27468;47.460;19.034;2023-07-31T03:00:42;3.08;;;2.00;;
41799;SDS011;27468;47.460;19.034;2023-07-31T03:03:08;2.53;;;1.77;;
41799;SDS011;27468;47.460;19.034;2023-07-31T03:05:33;2.60;;;1.80;;
41799;SDS011;27468;47.460;19.034;2023-07-31T03:07:59;4.03;;;1.70;;
41799;SDS011;27468;47.460;19.034;2023-07-31T03:10:24;3.13;;;1.75;;
41799;SDS011;27468;47.460;19.034;2023-07-31T03:12:49;2.42;;;1.80;;
41799;SDS011;27468;47.460;19.034;2023-07-31T03:15:15;2.72;;;1.85;;
41799;SDS011;27468;47.460;19.034;2023-07-31T03:17:40;3.03;;;1.95;;
41799;SDS011;27468;47.460;19.034;2023-07-31T03:20:06;3.63;;;1.88;;
41799;SDS011;27468;47.460;19.034;2023-07-31T03:22:31;3.95;;;2.17;;
41799;SDS011;27468;47.460;19.034;2023-07-31T03:24:57;4.57;;;2.05;;
41799;SDS011;27468;47.460;19.034;2023-07-31T03:27:22;3.20;;;1.90;;
41799;SDS011;27468;47.460;19.034;2023-07-31T03:29:48;2.15;;;1.80;;
41799;SDS011;27468;47.460;19.034;2023-07-31T03:32:16;2.78;;;1.90;;
41799;SDS011;27468;47.460;19.034;2023-07-31T03:34:41;3.47;;;1.92;;
41799;SDS011;27468;47.460;19.034;2023-07-31T03:37:07;3.58;;;1.90;;
41799;SDS011;27468;47.460;19.034;2023-07-31T03:39:34;2.22;;;1.80;;
41799;SDS011;27468;47.460;19.034;2023-07-31T03:42:00;2.47;;;1.60;;
41799;SDS011;27468;47.460;19.034;2023-07-31T03:44:25;3.40;;;2.08;;
41799;SDS011;27468;47.460;19.034;2023-07-31T03:46:50;2.55;;;1.50;;
41799;SDS011;27468;47.460;19.034;2023-07-31T03:49:16;3.60;;;2.08;;
41799;SDS011;27468;47.460;19.034;2023-07-31T03:51:41;1.80;;;1.40;;
41799;SDS011;27468;47.460;19.034;2023-07-31T03:54:07;3.17;;;1.80;;
41799;SDS011;27468;47.460;19.034;2023-07-31T03:56:33;2.42;;;1.65;;
41799;SDS011;27468;47.460;19.034;2023-07-31T03:58:58;2.08;;;1.88;;
41799;SDS011;27468;47.460;19.034;2023-07-31T04:01:24;2.65;;;1.73;;
41799;SDS011;27468;47.460;19.034;2023-07-31T04:03:49;2.65;;;1.92;;
41799;SDS011;27468;47.460;19.034;2023-07-31T04:06:14;2.78;;;1.92;;
41799;SDS011;27468;47.460;19.034;2023-07-31T04:08:43;4.28;;;1.85;;
41799;SDS011;27468;47.460;19.034;2023-07-31T04:11:09;2.00;;;1.60;;
41799;SDS011;27468;47.460;19.034;2023-07-31T04:13:35;2.15;;;1.67;;
41799;SDS011;27468;47.460;19.034;2023-07-31T04:16:00;3.40;;;1.73;;
41799;SDS011;27468;47.460;19.034;2023-07-31T04:18:25;2.42;;;1.40;;
41799;SDS011;27468;47.460;19.034;2023-07-31T04:20:51;2.50;;;1.70;;
41799;SDS011;27468;47.460;19.034;2023-07-31T04:23:16;2.45;;;1.50;;
41799;SDS011;27468;47.460;19.034;2023-07-31T04:25:42;2.78;;;1.73;;
41799;SDS011;27468;47.460;19.034;2023-07-31T04:28:07;2.50;;;1.70;;
41799;SDS011;27468;47.460;19.034;2023-07-31T04:30:33;2.35;;;1.80;;
41799;SDS011;27468;47.460;19.034;2023-07-31T04:32:58;1.85;;;1.45;;
41799;SDS011;27468;47.460;19.034;2023-07-31T04:35:24;2.50;;;1.58;;
41799;SDS011;27468;47.460;19.034;2023-07-31T04:37:49;2.08;;;1.60;;
41799;SDS011;27468;47.460;19.034;2023-07-31T04:40:15;2.30;;;1.70;;
41799;SDS011;27468;47.460;19.034;2023-07-31T04:42:41;2.58;;;1.70;;
41799;SDS011;27468;47.460;19.034;2023-07-31T04:45:08;3.47;;;1.90;;
41799;SDS011;27468;47.460;19.034;2023-07-31T04:47:33;2.33;;;1.60;;
41799;SDS011;27468;47.460;19.034;2023-07-31T04:49:59;3.08;;;1.70;;
41799;SDS011;27468;47.460;19.034;2023-07-31T04:52:24;2.03;;;1.33;;
41799;SDS011;27468;47.460;19.034;2023-07-31T04:54:50;2.70;;;1.52;;
41799;SDS011;27468;47.460;19.034;2023-07-31T04:57:15;1.98;;;1.55;;
41799;SDS011;27468;47.460;19.034;2023-07-31T04:59:41;2.33;;;1.63;;
41799;SDS011;27468;47.460;19.034;2023-07-31T05:02:11;2.53;;;1.35;;
41799;SDS011;27468;47.460;19.034;2023-07-31T05:04:37;2.72;;;1.88;;
41799;SDS011;27468;47.460;19.034;2023-07-31T05:07:02;2.13;;;1.42;;
41799;SDS011;27468;47.460;19.034;2023-07-31T05:09:28;1.60;;;1.30;;
41799;SDS011;27468;47.460;19.034;2023-07-31T05:11:53;2.33;;;1.92;;
41799;SDS011;27468;47.460;19.034;2023-07-31T05:14:19;2.55;;;1.40;;
41799;SDS011;27468;47.460;19.034;2023-07-31T05:16:45;3.80;;;1.40;;
41799;SDS011;27468;47.460;19.034;2023-07-31T05:19:10;1.60;;;1.10;;
41799;SDS011;27468;47.460;19.034;2023-07-31T05:21:36;2.00;;;1.23;;
41799;SDS011;27468;47.460;19.034;2023-07-31T05:24:01;2.85;;;1.20;;
41799;SDS011;27468;47.460;19.034;2023-07-31T05:26:27;1.55;;;1.23;;
41799;SDS011;27468;47.460;19.034;2023-07-31T05:28:52;1.95;;;1.27;;
41799;SDS011;27468;47.460;19.034;2023-07-31T05:31:18;2.25;;;1.10;;
41799;SDS011;27468;47.460;19.034;2023-07-31T05:33:43;1.75;;;1.10;;
41799;SDS011;27468;47.460;19.034;2023-07-31T05:36:09;2.47;;;1.20;;
41799;SDS011;27468;47.460;19.034;2023-07-31T05:38:34;2.83;;;0.98;;
41799;SDS011;27468;47.460;19.034;2023-07-31T05:41:00;2.22;;;1.15;;
41799;SDS011;27468;47.460;19.034;2023-07-31T05:43:25;2.50;;;1.20;;
41799;SDS011;27468;47.460;19.034;2023-07-31T05:45:51;2.22;;;1.27;;
41799;SDS011;27468;47.460;19.034;2023-07-31T05:48:16;2.67;;;1.33;;
41799;SDS011;27468;47.460;19.034;2023-07-31T05:50:43;3.20;;;1.20;;
41799;SDS011;27468;47.460;19.034;2023-07-31T05:53:08;3.38;;;1.08;;
41799;SDS011;27468;47.460;19.034;2023-07-31T05:55:35;3.22;;;1.98;;
41799;SDS011;27468;47.460;19.034;2023-07-31T05:58:01;3.05;;;0.98;;
41799;SDS011;27468;47.460;19.034;2023-07-31T06:00:26;2.75;;;1.20;;
41799;SDS011;27468;47.460;19.034;2023-07-31T06:02:52;1.88;;;1.10;;
41799;SDS011;27468;47.460;19.034;2023-07-31T06:05:18;1.63;;;1.30;;
41799;SDS011;27468;47.460;19.034;2023-07-31T06:07:43;2.05;;;1.15;;
41799;SDS011;27468;47.460;19.034;2023-07-31T06:10:08;2.20;;;0.88;;
41799;SDS011;27468;47.460;19.034;2023-07-31T06:12:34;3.92;;;1.38;;
41799;SDS011;27468;47.460;19.034;2023-07-31T06:15:01;1.75;;;1.02;;
41799;SDS011;27468;47.460;19.034;2023-07-31T06:17:28;2.22;;;1.40;;
41799;SDS011;27468;47.460;19.034;2023-07-31T06:19:54;1.98;;;1.00;;
41799;SDS011;27468;47.460;19.034;2023-07-31T06:22:21;1.92;;;1.20;;
41799;SDS011;27468;47.460;19.034;2023-07-31T06:24:47;2.70;;;1.20;;
41799;SDS011;27468;47.460;19.034;2023-07-31T06:27:12;1.95;;;1.08;;
41799;SDS011;27468;47.460;19.034;2023-07-31T06:29:37;3.35;;;1.10;;
41799;SDS011;27468;47.460;19.034;2023-07-31T06:32:03;3.40;;;1.20;;
41799;SDS011;27468;47.460;19.034;2023-07-31T06:34:29;2.13;;;1.15;;
41799;SDS011;27468;47.460;19.034;2023-07-31T06:36:55;2.15;;;1.10;;
41799;SDS011;27468;47.460;19.034;2023-07-31T06:39:21;2.13;;;1.10;;
41799;SDS011;27468;47.460;19.034;2023-07-31T06:41:46;2.58;;;1.33;;
41799;SDS011;27468;47.460;19.034;2023-07-31T06:44:11;2.92;;;1.10;;
41799;SDS011;27468;47.460;19.034;2023-07-31T06:46:37;2.05;;;0.85;;
41799;SDS011;27468;47.460;19.034;2023-07-31T06:49:03;1.90;;;1.05;;
41799;SDS011;27468;47.460;19.034;2023-07-31T06:51:28;2.22;;;1.17;;
41799;SDS011;27468;47.460;19.034;2023-07-31T06:53:56;1.90;;;1.13;;
41799;SDS011;27468;47.460;19.034;2023-07-31T06:56:22;2.75;;;1.40;;
41799;SDS011;27468;47.460;19.034;2023-07-31T06:58:47;1.92;;;1.10;;
41799;SDS011;27468;47.460;19.034;2023-07-31T07:01:13;2.63;;;1.00;;
41799;SDS011;27468;47.460;19.034;2023-07-31T07:03:38;2.20;;;1.20;;
41799;SDS011;27468;47.460;19.034;2023-07-31T07:06:03;2.08;;;1.20;;
41799;SDS011;27468;47.460;19.034;2023-07-31T07:08:29;2.58;;;1.20;;
41799;SDS011;27468;47.460;19.034;2023-07-31T07:10:54;2.78;;;1.17;;
41799;SDS011;27468;47.460;19.034;2023-07-31T07:13:20;1.50;;;1.15;;
41799;SDS011;27468;47.460;19.034;2023-07-31T07:15:50;1.92;;;0.93;;
41799;SDS011;27468;47.460;19.034;2023-07-31T07:18:16;3.53;;;1.35;;
41799;SDS011;27468;47.460;19.034;2023-07-31T07:20:52;2.55;;;1.25;;
41799;SDS011;27468;47.460;19.034;2023-07-31T07:23:18;1.70;;;1.35;;
41799;SDS011;27468;47.460;19.034;2023-07-31T07:25:45;3.03;;;1.38;;
41799;SDS011;27468;47.460;19.034;2023-07-31T07:28:11;1.73;;;1.17;;
41799;SDS011;27468;47.460;19.034;2023-07-31T07:30:36;1.45;;;0.90;;
41799;SDS011;27468;47.460;19.034;2023-07-31T07:33:02;2.13;;;1.10;;
41799;SDS011;27468;47.460;19.034;2023-07-31T07:35:28;1.38;;;1.08;;
41799;SDS011;27468;47.460;19.034;2023-07-31T07:37:53;2.35;;;1.10;;
41799;SDS011;27468;47.460;19.034;2023-07-31T07:40:19;2.58;;;1.30;;
41799;SDS011;27468;47.460;19.034;2023-07-31T07:42:45;2.33;;;1.20;;
41799;SDS011;27468;47.460;19.034;2023-07-31T07:45:10;2.10;;;1.10;;
41799;SDS011;27468;47.460;19.034;2023-07-31T07:47:36;2.53;;;1.00;;
41799;SDS011;27468;47.460;19.034;2023-07-31T07:50:02;3.47;;;1.20;;
41799;SDS011;27468;47.460;19.034;2023-07-31T07:52:28;2.08;;;1.10;;
41799;SDS011;27468;47.460;19.034;2023-07-31T07:54:53;2.45;;;1.38;;
41799;SDS011;27468;47.460;19.034;2023-07-31T07:57:19;2.25;;;1.10;;
41799;SDS011;27468;47.460;19.034;2023-07-31T07:59:44;2.35;;;1.30;;
41799;SDS011;27468;47.460;19.034;2023-07-31T08:02:10;2.55;;;1.20;;
41799;SDS011;27468;47.460;19.034;2023-07-31T08:04:35;1.90;;;1.30;;
41799;SDS011;27468;47.460;19.034;2023-07-31T08:07:00;1.92;;;1.20;;
41799;SDS011;27468;47.460;19.034;2023-07-31T08:09:26;1.63;;;1.27;;
41799;SDS011;27468;47.460;19.034;2023-07-31T08:11:51;2.67;;;1.20;;
41799;SDS011;27468;47.460;19.034;2023-07-31T08:14:17;2.10;;;1.10;;
41799;SDS011;27468;47.460;19.034;2023-07-31T08:16:42;2.53;;;1.10;;
41799;SDS011;27468;47.460;19.034;2023-07-31T08:19:07;2.90;;;1.27;;
41799;SDS011;27468;47.460;19.034;2023-07-31T08:21:33;3.47;;;1.30;;
41799;SDS011;27468;47.460;19.034;2023-07-31T08:23:58;1.80;;;1.15;;
41799;SDS011;27468;47.460;19.034;2023-07-31T08:26:24;2.38;;;1.00;;
41799;SDS011;27468;47.460;19.034;2023-07-31T08:28:49;1.80;;;1.50;;
41799;SDS011;27468;47.460;19.034;2023-07-31T08:31:15;3.88;;;1.33;;
41799;SDS011;27468;47.460;19.034;2023-07-31T08:33:40;2.78;;;1.38;;
41799;SDS011;27468;47.460;19.034;2023-07-31T08:36:06;2.47;;;1.30;;
41799;SDS011;27468;47.460;19.034;2023-07-31T08:38:31;2.25;;;1.10;;
41799;SDS011;27468;47.460;19.034;2023-07-31T08:40:57;1.90;;;1.30;;
41799;SDS011;27468;47.460;19.034;2023-07-31T08:43:25;2.83;;;1.83;;
41799;SDS011;27468;47.460;19.034;2023-07-31T08:45:51;3.13;;;1.30;;
41799;SDS011;27468;47.460;19.034;2023-07-31T08:48:17;2.22;;;1.20;;
41799;SDS011;27468;47.460;19.034;2023-07-31T08:50:43;1.98;;;1.38;;
41799;SDS011;27468;47.460;19.034;2023-07-31T08:53:08;3.13;;;1.40;;
41799;SDS011;27468;47.460;19.034;2023-07-31T08:55:34;3.50;;;1.30;;
41799;SDS011;27468;47.460;19.034;2023-07-31T08:58:00;3.17;;;1.33;;
41799;SDS011;27468;47.460;19.034;2023-07-31T09:00:29;2.08;;;1.40;;
41799;SDS011;27468;47.460;19.034;2023-07-31T09:05:26;2.05;;;1.30;;
41799;SDS011;27468;47.460;19.034;2023-07-31T09:07:55;2.58;;;1.15;;
41799;SDS011;27468;47.460;19.034;2023-07-31T09:10:21;2.40;;;1.20;;
41799;SDS011;27468;47.460;19.034;2023-07-31T09:12:46;3.63;;;1.38;;
41799;SDS011;27468;47.460;19.034;2023-07-31T09:15:14;2.85;;;1.30;;
41799;SDS011;27468;47.460;19.034;2023-07-31T09:17:39;3.90;;;1.60;;
41799;SDS011;27468;47.460;19.034;2023-07-31T09:22:44;2.30;;;0.95;;
41799;SDS011;27468;47.460;19.034;2023-07-31T09:25:23;2.28;;;1.20;;
41799;SDS011;27468;47.460;19.034;2023-07-31T09:30:26;2.85;;;1.30;;
41799;SDS011;27468;47.460;19.034;2023-07-31T09:32:59;2.20;;;1.20;;
41799;SDS011;27468;47.460;19.034;2023-07-31T09:35:30;2.83;;;1.00;;
41799;SDS011;27468;47.460;19.034;2023-07-31T09:38:00;3.70;;;1.30;;
41799;SDS011;27468;47.460;19.034;2023-07-31T09:42:59;4.30;;;1.52;;
41799;SDS011;27468;47.460;19.034;2023-07-31T09:45:26;3.53;;;1.30;;
41799;SDS011;27468;47.460;19.034;2023-07-31T09:47:52;4.13;;;1.45;;
41799;SDS011;27468;47.460;19.034;2023-07-31T09:50:20;2.45;;;1.38;;
41799;SDS011;27468;47.460;19.034;2023-07-31T09:52:46;2.55;;;1.45;;
41799;SDS011;27468;47.460;19.034;2023-07-31T09:55:12;2.25;;;1.17;;
41799;SDS011;27468;47.460;19.034;2023-07-31T09:57:41;1.70;;;1.20;;
41799;SDS011;27468;47.460;19.034;2023-07-31T10:00:11;1.88;;;1.20;;
41799;SDS011;27468;47.460;19.034;2023-07-31T10:02:38;3.33;;;1.48;;
41799;SDS011;27468;47.460;19.034;2023-07-31T10:05:04;3.50;;;1.50;;
41799;SDS011;27468;47.460;19.034;2023-07-31T10:07:31;3.95;;;1.20;;
41799;SDS011;27468;47.460;19.034;2023-07-31T10:10:01;3.17;;;1.20;;
41799;SDS011;27468;47.460;19.034;2023-07-31T10:12:29;1.45;;;1.10;;
41799;SDS011;27468;47.460;19.034;2023-07-31T10:14:56;2.40;;;1.33;;
41799;SDS011;27468;47.460;19.034;2023-07-31T10:17:24;6.07;;;1.40;;
41799;SDS011;27468;47.460;19.034;2023-07-31T10:19:50;2.63;;;1.20;;
41799;SDS011;27468;47.460;19.034;2023-07-31T10:22:16;2.63;;;1.48;;
41799;SDS011;27468;47.460;19.034;2023-07-31T10:24:43;2.17;;;1.20;;
41799;SDS011;27468;47.460;19.034;2023-07-31T10:27:10;2.35;;;1.17;;
41799;SDS011;27468;47.460;19.034;2023-07-31T10:29:39;2.55;;;1.13;;
41799;SDS011;27468;47.460;19.034;2023-07-31T10:32:07;2.30;;;1.13;;
41799;SDS011;27468;47.460;19.034;2023-07-31T10:34:35;1.65;;;1.20;;
41799;SDS011;27468;47.460;19.034;2023-07-31T10:37:22;2.55;;;1.25;;
41799;SDS011;27468;47.460;19.034;2023-07-31T10:40:04;2.42;;;1.10;;
41799;SDS011;27468;47.460;19.034;2023-07-31T10:43:05;3.55;;;1.10;;
41799;SDS011;27468;47.460;19.034;2023-07-31T10:45:33;3.60;;;1.30;;
41799;SDS011;27468;47.460;19.034;2023-07-31T10:48:02;4.30;;;1.20;;
41799;SDS011;27468;47.460;19.034;2023-07-31T10:50:29;3.92;;;1.10;;
41799;SDS011;27468;47.460;19.034;2023-07-31T10:52:58;1.45;;;0.90;;
41799;SDS011;27468;47.460;19.034;2023-07-31T10:58:28;1.65;;;1.08;;
41799;SDS011;27468;47.460;19.034;2023-07-31T11:00:47;2.53;;;1.08;;
41799;SDS011;27468;47.460;19.034;2023-07-31T11:03:13;4.05;;;1.20;;
41799;SDS011;27468;47.460;19.034;2023-07-31T11:05:47;2.22;;;1.30;;
41799;SDS011;27468;47.460;19.034;2023-07-31T11:10:51;3.80;;;1.20;;
41799;SDS011;27468;47.460;19.034;2023-07-31T11:13:41;1.55;;;0.82;;
41799;SDS011;27468;47.460;19.034;2023-07-31T11:16:17;3.22;;;1.25;;
41799;SDS011;27468;47.460;19.034;2023-07-31T11:18:46;2.40;;;1.10;;
41799;SDS011;27468;47.460;19.034;2023-07-31T11:21:20;3.72;;;1.50;;
41799;SDS011;27468;47.460;19.034;2023-07-31T11:23:47;1.33;;;0.90;;
41799;SDS011;27468;47.460;19.034;2023-07-31T11:26:14;3.83;;;1.15;;
41799;SDS011;27468;47.460;19.034;2023-07-31T11:28:40;2.75;;;1.30;;
41799;SDS011;27468;47.460;19.034;2023-07-31T11:31:08;2.22;;;1.20;;
41799;SDS011;27468;47.460;19.034;2023-07-31T11:33:35;1.52;;;1.00;;
41799;SDS011;27468;47.460;19.034;2023-07-31T11:36:01;3.08;;;1.10;;
41799;SDS011;27468;47.460;19.034;2023-07-31T11:38:27;3.97;;;1.10;;
41799;SDS011;27468;47.460;19.034;2023-07-31T11:40:58;1.92;;;1.38;;
41799;SDS011;27468;47.460;19.034;2023-07-31T11:43:27;3.30;;;0.98;;
41799;SDS011;27468;47.460;19.034;2023-07-31T11:45:56;3.00;;;1.15;;
41799;SDS011;27468;47.460;19.034;2023-07-31T11:50:51;1.50;;;0.95;;
41799;SDS011;27468;47.460;19.034;2023-07-31T11:53:23;1.38;;;1.08;;
41799;SDS011;27468;47.460;19.034;2023-07-31T11:55:54;3.30;;;1.17;;
41799;SDS011;27468;47.460;19.034;2023-07-31T11:58:20;4.53;;;1.30;;
41799;SDS011;27468;47.460;19.034;2023-07-31T12:00:47;2.67;;;1.08;;
41799;SDS011;27468;47.460;19.034;2023-07-31T12:03:13;1.55;;;0.90;;
41799;SDS011;27468;47.460;19.034;2023-07-31T12:05:39;1.88;;;1.00;;
41799;SDS011;27468;47.460;19.034;2023-07-31T12:08:11;2.55;;;1.10;;
41799;SDS011;27468;47.460;19.034;2023-07-31T12:10:37;3.30;;;1.25;;
41799;SDS011;27468;47.460;19.034;2023-07-31T12:13:10;1.15;;;1.05;;
41799;SDS011;27468;47.460;19.034;2023-07-31T12:15:44;3.58;;;1.15;;
41799;SDS011;27468;47.460;19.034;2023-07-31T12:18:11;2.42;;;1.35;;
41799;SDS011;27468;47.460;19.034;2023-07-31T12:20:45;4.32;;;1.10;;
41799;SDS011;27468;47.460;19.034;2023-07-31T12:23:18;1.75;;;1.27;;
41799;SDS011;27468;47.460;19.034;2023-07-31T12:31:14;3.10;;;0.82;;
41799;SDS011;27468;47.460;19.034;2023-07-31T12:33:40;2.15;;;1.25;;
41799;SDS011;27468;47.460;19.034;2023-07-31T12:36:10;2.38;;;1.25;;
41799;SDS011;27468;47.460;19.034;2023-07-31T12:38:40;2.25;;;1.00;;
41799;SDS011;27468;47.460;19.034;2023-07-31T12:41:06;3.35;;;1.30;;
41799;SDS011;27468;47.460;19.034;2023-07-31T12:43:35;2.22;;;1.15;;
41799;SDS011;27468;47.460;19.034;2023-07-31T12:46:05;2.97;;;1.38;;
41799;SDS011;27468;47.460;19.034;2023-07-31T12:48:33;2.85;;;1.15;;
41799;SDS011;27468;47.460;19.034;2023-07-31T12:50:59;2.42;;;1.10;;
41799;SDS011;27468;47.460;19.034;2023-07-31T12:53:24;2.92;;;1.35;;
41799;SDS011;27468;47.460;19.034;2023-07-31T12:55:49;1.27;;;0.93;;
41799;SDS011;27468;47.460;19.034;2023-07-31T12:58:15;1.58;;;0.95;;
41799;SDS011;27468;47.460;19.034;2023-07-31T13:00:41;1.38;;;1.10;;
41799;SDS011;27468;47.460;19.034;2023-07-31T13:03:06;3.20;;;1.40;;
41799;SDS011;27468;47.460;19.034;2023-07-31T13:05:31;2.15;;;1.10;;
41799;SDS011;27468;47.460;19.034;2023-07-31T13:07:57;2.10;;;1.00;;
41799;SDS011;27468;47.460;19.034;2023-07-31T13:10:23;2.60;;;1.10;;
41799;SDS011;27468;47.460;19.034;2023-07-31T13:12:48;3.53;;;0.90;;
41799;SDS011;27468;47.460;19.034;2023-07-31T13:15:14;2.00;;;1.20;;
41799;SDS011;27468;47.460;19.034;2023-07-31T13:17:40;3.72;;;1.10;;
41799;SDS011;27468;47.460;19.034;2023-07-31T13:20:05;2.28;;;1.38;;
41799;SDS011;27468;47.460;19.034;2023-07-31T13:22:31;2.60;;;1.30;;
41799;SDS011;27468;47.460;19.034;2023-07-31T13:24:56;2.15;;;0.90;;
41799;SDS011;27468;47.460;19.034;2023-07-31T13:27:22;3.42;;;1.50;;
41799;SDS011;27468;47.460;19.034;2023-07-31T13:29:48;2.63;;;1.20;;
41799;SDS011;27468;47.460;19.034;2023-07-31T13:32:15;1.85;;;1.00;;
41799;SDS011;27468;47.460;19.034;2023-07-31T13:34:45;2.05;;;1.10;;
41799;SDS011;27468;47.460;19.034;2023-07-31T13:37:11;1.67;;;1.13;;
41799;SDS011;27468;47.460;19.034;2023-07-31T13:39:37;1.70;;;1.00;;
41799;SDS011;27468;47.460;19.034;2023-07-31T13:42:02;2.65;;;1.15;;
41799;SDS011;27468;47.460;19.034;2023-07-31T13:44:28;2.85;;;1.92;;
41799;SDS011;27468;47.460;19.034;2023-07-31T13:46:54;2.22;;;1.15;;
41799;SDS011;27468;47.460;19.034;2023-07-31T13:49:19;1.08;;;0.93;;
41799;SDS011;27468;47.460;19.034;2023-07-31T13:51:45;1.58;;;1.10;;
41799;SDS011;27468;47.460;19.034;2023-07-31T13:54:11;2.60;;;1.00;;
41799;SDS011;27468;47.460;19.034;2023-07-31T13:56:36;1.77;;;1.08;;
41799;SDS011;27468;47.460;19.034;2023-07-31T13:59:02;2.45;;;1.23;;
41799;SDS011;27468;47.460;19.034;2023-07-31T14:01:28;3.60;;;1.55;;
41799;SDS011;27468;47.460;19.034;2023-07-31T14:03:53;2.20;;;1.17;;
41799;SDS011;27468;47.460;19.034;2023-07-31T14:06:19;1.00;;;0.90;;
41799;SDS011;27468;47.460;19.034;2023-07-31T14:08:44;1.58;;;1.10;;
41799;SDS011;27468;47.460;19.034;2023-07-31T14:11:10;2.40;;;1.25;;
41799;SDS011;27468;47.460;19.034;2023-07-31T14:13:35;3.15;;;1.30;;
41799;SDS011;27468;47.460;19.034;2023-07-31T14:16:01;1.55;;;1.10;;
41799;SDS011;27468;47.460;19.034;2023-07-31T14:18:26;3.10;;;1.60;;
41799;SDS011;27468;47.460;19.034;2023-07-31T14:20:51;2.03;;;1.20;;
41799;SDS011;27468;47.460;19.034;2023-07-31T14:23:17;3.28;;;1.50;;
41799;SDS011;27468;47.460;19.034;2023-07-31T14:25:44;2.17;;;1.10;;
41799;SDS011;27468;47.460;19.034;2023-07-31T14:28:10;2.38;;;1.00;;
41799;SDS011;27468;47.460;19.034;2023-07-31T14:30:35;3.22;;;1.10;;
41799;SDS011;27468;47.460;19.034;2023-07-31T14:33:00;1.63;;;1.27;;
41799;SDS011;27468;47.460;19.034;2023-07-31T14:35:27;2.15;;;1.33;;
41799;SDS011;27468;47.460;19.034;2023-07-31T14:37:52;2.65;;;1.27;;
41799;SDS011;27468;47.460;19.034;2023-07-31T14:40:18;2.80;;;1.58;;
41799;SDS011;27468;47.460;19.034;2023-07-31T14:42:43;2.38;;;1.23;;
41799;SDS011;27468;47.460;19.034;2023-07-31T14:45:09;3.03;;;1.10;;
41799;SDS011;27468;47.460;19.034;2023-07-31T14:47:35;2.55;;;1.13;;
41799;SDS011;27468;47.460;19.034;2023-07-31T14:50:01;2.75;;;1.15;;
41799;SDS011;27468;47.460;19.034;2023-07-31T14:52:26;2.50;;;1.15;;
41799;SDS011;27468;47.460;19.034;2023-07-31T14:54:51;1.10;;;1.00;;
41799;SDS011;27468;47.460;19.034;2023-07-31T14:57:17;2.20;;;1.23;;
41799;SDS011;27468;47.460;19.034;2023-07-31T14:59:43;1.73;;;1.27;;